EGHH/BOH METAR and TAF weather

Enter ICAO airport designator
Station Type Date Time Source
EGHH METAR 2020/03/28 15:50 UTC NOAA

EGHH 281550Z 04020G30KT 9999 SCT032 11/03 Q1028


Station Type Date Time Source
EGHH Decoded METAR 2020/03/28 15:50 UTC NOAA

Bournemouth Airport, United Kingdom (EGHH) 50-47N 001-50W 0M
Mar 28, 2020 - 11:50 AM EDT / 2020.03.28 1550 UTC
Wind: from the NE (040 degrees) at 23 MPH (20 KT) gusting to 35 MPH (30 KT):0
Visibility: greater than 7 mile(s):0
Sky conditions: partly cloudy
Temperature: 51 F (11 C)
Dew Point: 37 F (3 C)
Relative Humidity: 57%
Pressure (altimeter): 30.36 in. Hg (1028 hPa)
ob: EGHH 281550Z 04020G30KT 9999 SCT032 11/03 Q1028
cycle: 16

Station Type Date Time Source
EGHH TAF 2020/02/21 21:06 UTC NOAA

TAF EGHH 210200Z 2021/2123 CNL

Example: see airport list